Time;durP1;ratioP1;P1;durP2;ratioP2;P2;SDS_P1;SDS_P2;PMS_P1;PMS_P2;Temp;Humidity;BMP_temperature;BMP_pressure;BME280_temperature;BME280_humidity;BME280_pressure;Samples;Min_cycle;Max_cycle;Signal;HPM_P1;HPM_P2
2021/11/26 00:00:56;;;;;;;10.02;5.63;;;;;;;3.38;64.32;99270.13;5018297;28;20049;-76
2021/11/26 00:03:21;;;;;;;11.93;5.68;;;;;;;3.33;64.46;99264.03;5017439;28;20037;-77
2021/11/26 00:05:48;;;;;;;8.93;5.63;;;;;;;3.39;64.78;99282.13;5002358;28;20136;-77
2021/11/26 00:08:14;;;;;;;9.05;5.57;;;;;;;3.30;64.71;99264.03;5023217;28;20072;-75
2021/11/26 00:10:40;;;;;;;9.55;5.60;;;;;;;3.24;64.53;99267.38;5008016;28;20038;-77
2021/11/26 00:13:08;;;;;;;8.23;5.50;;;;;;;3.23;64.33;99249.38;5000947;28;20417;-77
2021/11/26 00:15:39;;;;;;;9.13;5.25;;;;;;;3.39;64.36;99271.00;5017500;28;20037;-77
2021/11/26 00:18:09;;;;;;;8.02;4.65;;;;;;;3.31;64.68;99248.59;5003784;28;20558;-76
2021/11/26 00:20:37;;;;;;;9.07;5.75;;;;;;;3.30;64.16;99259.75;4996865;28;20045;-78
2021/11/26 00:23:03;;;;;;;11.10;5.88;;;;;;;3.20;64.03;99249.31;5018859;28;20041;-76
2021/11/26 00:25:29;;;;;;;8.75;5.53;;;;;;;3.13;64.53;99245.81;4999000;28;20053;-77
2021/11/26 00:27:55;;;;;;;11.60;6.07;;;;;;;3.16;64.76;99266.44;5016430;28;20037;-78
2021/11/26 00:30:21;;;;;;;10.10;5.85;;;;;;;3.12;64.39;99237.22;4982829;28;20038;-79
2021/11/26 00:32:47;;;;;;;9.98;5.97;;;;;;;2.80;64.23;99198.25;4998654;28;20041;-76
2021/11/26 00:35:13;;;;;;;8.65;5.65;;;;;;;3.12;64.34;99250.09;5019962;28;20445;-76
2021/11/26 00:37:39;;;;;;;9.52;5.78;;;;;;;3.21;64.56;99239.03;5024704;28;20133;-77
2021/11/26 00:40:06;;;;;;;8.68;5.28;;;;;;;3.16;64.25;99235.56;5017028;28;20037;-76
2021/11/26 00:42:32;;;;;;;9.50;5.90;;;;;;;3.26;64.19;99257.97;4983401;28;20122;-75
2021/11/26 00:44:58;;;;;;;9.60;5.55;;;;;;;3.17;63.67;99240.72;4981711;28;20539;-77
2021/11/26 00:47:24;;;;;;;11.23;6.13;;;;;;;3.21;64.34;99233.91;5031796;28;20611;-78
2021/11/26 00:49:50;;;;;;;8.43;5.72;;;;;;;3.25;64.68;99238.25;4990180;28;20042;-76
2021/11/26 00:52:16;;;;;;;8.57;5.70;;;;;;;3.35;64.10;99251.22;5017536;28;20042;-78
2021/11/26 00:54:42;;;;;;;9.52;5.57;;;;;;;3.20;64.24;99216.75;4999276;28;20044;-77
2021/11/26 00:57:09;;;;;;;8.07;5.68;;;;;;;3.16;63.73;99213.28;5017212;28;20045;-77
2021/11/26 00:59:36;;;;;;;9.10;5.43;;;;;;;3.19;64.32;99225.34;5003793;28;20120;-76
2021/11/26 01:02:04;;;;;;;10.90;5.88;;;;;;;3.22;64.37;99235.63;5017123;28;20044;-76
2021/11/26 01:04:30;;;;;;;8.93;5.85;;;;;;;3.20;64.04;99216.75;4986200;28;20041;-76
2021/11/26 01:06:56;;;;;;;9.02;5.50;;;;;;;3.22;64.19;99216.78;4998902;28;20096;-79
2021/11/26 01:09:22;;;;;;;11.60;6.45;;;;;;;3.33;63.49;99232.34;5017247;28;20628;-76
2021/11/26 01:11:48;;;;;;;10.90;5.80;;;;;;;3.25;64.16;99220.25;4997982;28;20100;-77
2021/11/26 01:14:14;;;;;;;10.68;5.60;;;;;;;3.36;63.88;99229.81;4998475;28;20030;-78
2021/11/26 01:16:40;;;;;;;9.20;5.88;;;;;;;3.31;63.51;99232.34;4998157;28;20052;-76
2021/11/26 01:19:07;;;;;;;10.07;5.93;;;;;;;3.26;63.64;99227.13;5015960;28;20049;-79
2021/11/26 01:21:33;;;;;;;9.48;5.72;;;;;;;3.22;63.60;99217.63;4998738;28;20118;-76
2021/11/26 01:23:59;;;;;;;10.13;5.97;;;;;;;3.20;63.91;99201.31;4997481;28;20074;-76
2021/11/26 01:26:25;;;;;;;11.95;6.13;;;;;;;3.34;63.57;99221.19;5001512;28;20052;-77
2021/11/26 01:28:51;;;;;;;12.70;6.47;;;;;;;3.33;63.40;99222.91;5010574;28;20108;-76
2021/11/26 01:31:18;;;;;;;10.38;6.22;;;;;;;3.09;63.35;99183.19;4983990;28;20042;-76
2021/11/26 01:33:45;;;;;;;10.45;6.45;;;;;;;3.30;63.75;99210.88;5015423;28;20060;-76
2021/11/26 01:36:10;;;;;;;11.95;6.10;;;;;;;3.22;63.55;99199.63;4997973;28;20052;-76
2021/11/26 01:38:36;;;;;;;10.80;6.50;;;;;;;3.22;63.17;99194.47;4999847;28;20049;-76
2021/11/26 01:41:08;;;;;;;12.48;6.60;;;;;;;3.15;63.34;99187.56;4998865;28;20069;-76
2021/11/26 01:43:35;;;;;;;9.27;5.95;;;;;;;3.24;63.61;99208.22;4997593;28;20050;-77
2021/11/26 01:46:09;;;;;;;11.27;6.75;;;;;;;3.25;63.75;99196.25;4982709;28;20410;-75
2021/11/26 01:48:41;;;;;;;11.27;6.45;;;;;;;3.24;63.29;99194.53;5016412;28;20041;-76
2021/11/26 01:51:09;;;;;;;13.30;7.35;;;;;;;3.25;63.90;99194.53;4992464;28;20091;-75
2021/11/26 01:53:38;;;;;;;9.75;6.05;;;;;;;3.23;63.00;99198.78;5017537;28;20045;-74
2021/11/26 01:56:05;;;;;;;10.45;6.65;;;;;;;3.19;63.42;99198.75;5000193;28;20046;-76
2021/11/26 01:58:31;;;;;;;10.30;6.60;;;;;;;3.16;63.49;99192.72;4989838;28;20038;-77
2021/11/26 02:04:43;;;;;;;12.82;7.05;;;;;;;3.17;63.11;99209.03;4994571;28;20064;-77
2021/11/26 02:07:10;;;;;;;11.07;6.55;;;;;;;3.08;63.18;99196.94;4998182;28;20030;-78
2021/11/26 02:09:36;;;;;;;13.48;7.40;;;;;;;3.10;63.61;99171.22;4981945;28;20084;-77
2021/11/26 02:12:02;;;;;;;10.43;6.80;;;;;;;3.13;63.38;99184.97;4997171;28;20052;-77
2021/11/26 02:14:30;;;;;;;11.95;7.55;;;;;;;3.14;63.36;99180.69;4982662;28;20490;-78
2021/11/26 02:16:56;;;;;;;11.77;6.97;;;;;;;3.25;63.58;99185.97;5004556;28;20063;-79
2021/11/26 02:19:24;;;;;;;9.45;6.18;;;;;;;3.25;63.84;99191.94;4993052;28;20045;-76
2021/11/26 02:21:51;;;;;;;11.68;7.30;;;;;;;3.25;63.29;99189.38;5017605;28;20042;-77
2021/11/26 02:24:18;;;;;;;10.88;7.35;;;;;;;3.29;63.25;99178.28;5001634;28;20052;-76
2021/11/26 02:26:46;;;;;;;11.93;6.63;;;;;;;3.23;63.25;99160.22;5022844;28;20512;-76
2021/11/26 02:29:14;;;;;;;11.77;7.10;;;;;;;3.27;62.97;99169.69;5018168;28;20597;-76
2021/11/26 02:31:41;;;;;;;11.88;6.97;;;;;;;3.13;62.95;99148.97;5039156;28;20117;-75
2021/11/26 02:34:07;;;;;;;11.27;6.80;;;;;;;3.23;63.13;99157.63;4990983;28;20171;-78
2021/11/26 02:36:33;;;;;;;12.10;6.82;;;;;;;3.13;62.71;99142.97;4992497;28;20041;-74
2021/11/26 02:39:00;;;;;;;11.95;7.15;;;;;;;3.24;63.12;99159.38;5016415;28;20116;-75
2021/11/26 02:41:26;;;;;;;12.25;7.30;;;;;;;3.16;62.80;99138.72;5001109;28;20044;-78
2021/11/26 02:43:52;;;;;;;15.40;7.30;;;;;;;3.13;62.78;99143.81;5000607;28;20054;-76
2021/11/26 02:46:18;;;;;;;12.38;7.47;;;;;;;3.24;62.77;99163.66;5033165;28;20049;-76
2021/11/26 02:48:47;;;;;;;12.13;6.95;;;;;;;3.27;62.96;99145.69;5000401;28;20452;-75
2021/11/26 02:51:13;;;;;;;14.25;7.63;;;;;;;3.12;62.78;99121.53;4989189;28;20465;-75
2021/11/26 02:53:39;;;;;;;12.68;7.18;;;;;;;3.23;63.01;99157.63;5018505;28;20136;-77
2021/11/26 02:56:05;;;;;;;11.70;7.10;;;;;;;3.18;63.37;99138.75;5001662;28;20137;-77
2021/11/26 02:58:32;;;;;;;12.80;7.30;;;;;;;3.07;62.81;99127.47;4982839;28;20042;-76
2021/11/26 03:00:59;;;;;;;14.13;7.82;;;;;;;3.03;62.87;99116.31;5000585;28;20037;-76
2021/11/26 03:03:25;;;;;;;12.48;7.07;;;;;;;3.12;62.88;99118.09;5001354;28;20069;-75
2021/11/26 03:06:03;;;;;;;11.70;7.57;;;;;;;3.03;62.91;99125.72;4984927;28;20084;-77
2021/11/26 03:08:29;;;;;;;13.18;7.47;;;;;;;2.96;63.01;99120.53;5003764;28;20047;-76
2021/11/26 03:10:58;;;;;;;13.85;7.57;;;;;;;3.13;62.59;99140.41;5002858;28;20040;-75
2021/11/26 03:13:24;;;;;;;12.55;7.28;;;;;;;3.07;62.54;99133.50;5052414;28;20042;-75
2021/11/26 03:15:51;;;;;;;13.27;7.43;;;;;;;3.03;62.57;99125.72;5021375;28;20046;-75
2021/11/26 03:18:19;;;;;;;14.52;8.15;;;;;;;2.95;62.07;99110.22;5015278;28;20053;-77
2021/11/26 03:20:50;;;;;;;13.27;7.45;;;;;;;3.05;62.51;99124.03;4985269;28;20076;-74
2021/11/26 03:23:17;;;;;;;15.77;8.93;;;;;;;3.01;62.64;99118.00;5024671;28;20560;-77
2021/11/26 03:25:43;;;;;;;12.23;7.68;;;;;;;2.91;62.74;99082.75;5002319;28;20069;-75
2021/11/26 03:28:11;;;;;;;14.57;7.82;;;;;;;2.87;62.72;99074.16;4985240;28;20050;-76
2021/11/26 03:30:38;;;;;;;14.13;8.73;;;;;;;2.80;62.47;99052.66;5019982;28;20045;-75
2021/11/26 03:33:05;;;;;;;13.15;7.85;;;;;;;2.96;62.33;99079.41;5001622;28;20038;-75
2021/11/26 03:35:31;;;;;;;14.57;8.25;;;;;;;3.05;62.44;99083.78;5017601;28;20068;-75
2021/11/26 03:37:57;;;;;;;13.95;8.30;;;;;;;2.96;62.67;99063.97;4999937;28;20050;-75
2021/11/26 03:40:25;;;;;;;15.50;8.63;;;;;;;3.01;61.78;99082.84;5019115;28;20051;-75
2021/11/26 03:42:53;;;;;;;13.73;7.88;;;;;;;2.99;62.12;99074.25;4991918;28;20061;-76
2021/11/26 03:45:21;;;;;;;15.25;8.38;;;;;;;2.96;61.99;99071.69;4989843;28;20042;-77
2021/11/26 03:47:48;;;;;;;12.88;8.48;;;;;;;3.03;61.82;99069.16;4997863;28;20418;-80
2021/11/26 03:50:14;;;;;;;14.73;8.57;;;;;;;2.92;62.45;99064.78;5033587;28;20473;-79
2021/11/26 03:52:41;;;;;;;14.75;8.65;;;;;;;3.05;62.33;99077.75;5019828;28;20052;-76
2021/11/26 03:55:12;;;;;;;13.05;8.35;;;;;;;3.08;62.26;99080.34;4987432;28;20038;-77
2021/11/26 03:57:39;;;;;;;14.07;8.15;;;;;;;3.00;62.17;99057.16;5016233;28;20208;-76
2021/11/26 04:00:07;;;;;;;15.27;9.00;;;;;;;3.09;61.43;99074.38;5000096;28;20132;-78
2021/11/26 04:02:38;;;;;;;13.48;8.07;;;;;;;2.95;61.65;99059.69;4999937;28;20609;-75
2021/11/26 04:05:05;;;;;;;14.43;8.40;;;;;;;3.07;62.17;99071.81;5020479;28;20057;-78
2021/11/26 04:07:31;;;;;;;21.52;9.05;;;;;;;3.10;62.21;99083.81;5018543;28;20137;-76
2021/11/26 04:09:58;;;;;;;14.45;8.05;;;;;;;2.88;61.27;99049.28;4983588;28;20972;-76
2021/11/26 04:12:24;;;;;;;15.20;8.27;;;;;;;2.96;61.55;99060.53;5004697;28;20137;-77
2021/11/26 04:14:54;;;;;;;18.52;9.35;;;;;;;3.10;61.90;99079.50;4999642;28;20172;-75
2021/11/26 04:17:21;;;;;;;16.10;9.02;;;;;;;3.07;62.02;99071.81;5017335;28;20056;-76
2021/11/26 04:19:47;;;;;;;13.60;8.55;;;;;;;2.96;61.30;99055.38;5018865;28;20044;-76
2021/11/26 04:22:13;;;;;;;13.65;8.00;;;;;;;2.93;61.29;99038.25;4967047;28;20588;-77
2021/11/26 04:24:38;;;;;;;14.50;8.30;;;;;;;3.01;61.25;99064.84;4998515;28;20034;-76
2021/11/26 04:27:04;;;;;;;15.65;8.63;;;;;;;3.03;61.43;99069.16;5017314;28;20049;-74
2021/11/26 04:29:30;;;;;;;13.88;8.50;;;;;;;3.01;61.53;99079.44;4990259;28;20056;-76
2021/11/26 04:31:56;;;;;;;12.73;8.02;;;;;;;2.94;61.79;99081.09;4987894;28;20041;-73
2021/11/26 04:34:22;;;;;;;14.27;8.32;;;;;;;2.77;61.29;99056.91;4999692;28;20528;-77
2021/11/26 04:36:48;;;;;;;13.57;8.07;;;;;;;2.92;60.97;99075.06;5016659;28;20042;-75
2021/11/26 04:39:14;;;;;;;13.38;8.43;;;;;;;2.96;61.46;99074.25;5020734;28;20492;-76
2021/11/26 04:41:40;;;;;;;12.50;7.93;;;;;;;2.87;61.83;99066.44;5019516;28;20041;-78
2021/11/26 04:44:06;;;;;;;13.23;7.82;;;;;;;2.90;61.28;99094.75;4961263;28;20145;-77
2021/11/26 04:46:32;;;;;;;12.07;7.30;;;;;;;2.75;60.74;99059.47;5021658;28;20046;-75
2021/11/26 04:48:58;;;;;;;14.77;8.15;;;;;;;2.79;61.20;99073.19;4999405;28;20160;-76
2021/11/26 04:51:24;;;;;;;11.88;7.43;;;;;;;2.78;60.75;99071.47;5020920;28;20548;-77
2021/11/26 04:53:53;;;;;;;15.90;7.63;;;;;;;2.75;61.45;99069.75;4991544;28;20077;-75
2021/11/26 04:56:19;;;;;;;12.95;7.50;;;;;;;2.78;60.74;99089.44;5010634;28;20045;-76
2021/11/26 04:58:44;;;;;;;14.85;7.55;;;;;;;2.81;60.81;99074.94;5019454;28;20049;-76
2021/11/26 05:01:10;;;;;;;14.02;7.78;;;;;;;2.84;60.97;99095.56;4998459;28;20041;-75
2021/11/26 05:03:36;;;;;;;14.45;7.65;;;;;;;2.85;60.93;99089.56;4998295;28;20065;-72
2021/11/26 05:06:02;;;;;;;11.55;7.25;;;;;;;2.87;60.73;99099.84;4982578;28;20131;-74
2021/11/26 05:08:28;;;;;;;12.13;7.03;;;;;;;2.82;60.92;99080.94;4999676;28;20180;-79
2021/11/26 05:10:55;;;;;;;13.57;7.82;;;;;;;2.79;60.23;99096.31;4999166;28;20095;-75
2021/11/26 05:13:23;;;;;;;12.43;7.75;;;;;;;2.78;60.50;99084.31;4985949;28;20070;-77
2021/11/26 05:15:50;;;;;;;11.80;7.38;;;;;;;2.74;60.44;99090.28;4982879;28;20034;-77
2021/11/26 05:18:16;;;;;;;11.88;7.57;;;;;;;2.75;60.59;99074.03;4997638;28;20037;-76
2021/11/26 05:20:42;;;;;;;12.65;7.57;;;;;;;2.73;60.87;99075.72;4999631;28;20502;-76
2021/11/26 05:23:11;;;;;;;12.35;7.75;;;;;;;2.66;61.06;99069.63;4999071;28;20137;-75
2021/11/26 05:25:37;;;;;;;12.55;7.93;;;;;;;2.75;60.45;99076.59;5000765;28;20049;-74
2021/11/26 05:28:03;;;;;;;12.00;7.43;;;;;;;2.78;60.46;99077.47;5016872;28;20053;-76
2021/11/26 05:30:29;;;;;;;13.65;7.43;;;;;;;2.71;60.83;99050.88;5017266;28;20069;-74
2021/11/26 05:32:55;;;;;;;14.13;7.90;;;;;;;2.88;60.84;99064.72;4999438;28;20065;-74
2021/11/26 05:35:21;;;;;;;14.02;7.25;;;;;;;2.84;60.78;99053.56;5017937;28;20053;-74
2021/11/26 05:37:47;;;;;;;13.48;7.82;;;;;;;2.90;60.59;99053.63;4999845;28;20050;-75
2021/11/26 05:40:15;;;;;;;14.35;8.55;;;;;;;2.89;60.39;99053.59;4983207;28;20034;-76
2021/11/26 05:42:42;;;;;;;14.02;7.80;;;;;;;2.96;60.09;99050.25;4999129;28;20057;-77
2021/11/26 05:45:10;;;;;;;14.02;7.60;;;;;;;2.79;60.04;99016.66;5019096;28;20099;-74
2021/11/26 05:47:36;;;;;;;13.85;6.95;;;;;;;2.90;60.04;99025.34;5000134;28;20069;-76
2021/11/26 05:50:06;;;;;;;13.50;7.65;;;;;;;2.81;59.90;99013.28;4983203;28;20096;-77
2021/11/26 05:52:36;;;;;;;12.70;7.00;;;;;;;2.97;59.91;99041.69;5001638;28;20574;-77
2021/11/26 05:55:03;;;;;;;15.30;8.02;;;;;;;2.94;60.04;99034.81;5031970;28;20050;-78
2021/11/26 05:57:29;;;;;;;14.73;7.55;;;;;;;2.96;60.12;99034.81;5001297;28;20564;-77
2021/11/26 05:59:55;;;;;;;13.43;7.85;;;;;;;2.85;59.76;99037.28;4999737;28;20037;-75
2021/11/26 06:02:21;;;;;;;12.73;7.20;;;;;;;2.94;60.08;99032.25;4985660;28;20049;-76
2021/11/26 06:04:47;;;;;;;13.07;7.60;;;;;;;2.84;59.82;99015.88;5005689;28;20033;-75
2021/11/26 06:07:13;;;;;;;14.70;7.78;;;;;;;2.99;59.94;99029.72;5013796;28;20457;-77
2021/11/26 06:09:39;;;;;;;12.93;7.03;;;;;;;2.98;60.10;99018.56;5003757;28;20136;-78
2021/11/26 06:12:08;;;;;;;16.13;8.00;;;;;;;3.05;59.80;99013.47;5002886;28;20053;-77
2021/11/26 06:14:35;;;;;;;11.65;7.85;;;;;;;3.04;59.65;99009.19;4998292;28;20421;-77
2021/11/26 06:17:09;;;;;;;13.70;7.35;;;;;;;3.06;60.35;99018.66;5001501;28;20697;-78
2021/11/26 06:19:58;;;;;;;15.52;8.15;;;;;;;2.95;60.01;99010.84;4990418;28;20072;-76
2021/11/26 06:22:29;;;;;;;15.52;8.48;;;;;;;2.95;59.77;99005.72;5008119;28;20136;-76
2021/11/26 06:24:55;;;;;;;13.20;7.90;;;;;;;3.03;59.73;99022.88;5004381;28;20099;-76
2021/11/26 06:27:21;;;;;;;13.82;7.45;;;;;;;3.07;59.79;99016.94;5020394;28;20045;-76
2021/11/26 06:29:49;;;;;;;13.85;7.25;;;;;;;2.99;60.06;98986.03;5004113;28;20110;-76
2021/11/26 06:32:25;;;;;;;14.82;8.13;;;;;;;2.90;59.57;98973.94;5018320;28;20127;-76
2021/11/26 06:34:54;;;;;;;14.10;8.63;;;;;;;2.96;60.14;98956.03;4982674;28;20178;-77
2021/11/26 06:37:23;;;;;;;13.55;7.47;;;;;;;3.07;59.88;98991.22;5016592;28;20412;-75
2021/11/26 06:39:49;;;;;;;15.15;8.05;;;;;;;3.15;59.62;98997.31;4990113;28;20041;-78
2021/11/26 06:42:18;;;;;;;11.57;7.20;;;;;;;3.08;59.86;99010.94;5004825;28;20131;-81
2021/11/26 06:44:44;;;;;;;14.95;7.63;;;;;;;3.09;59.82;99028.09;5093419;23;20138;-81
2021/11/26 06:47:10;;;;;;;11.32;6.82;;;;;;;3.12;59.89;99033.28;4958322;28;20503;-82
2021/11/26 06:49:36;;;;;;;15.43;7.97;;;;;;;3.18;59.93;99028.19;4974202;28;20057;-76
2021/11/26 06:52:02;;;;;;;13.30;7.15;;;;;;;3.06;60.00;99005.81;4944228;28;20078;-79
2021/11/26 06:54:28;;;;;;;12.48;7.45;;;;;;;2.96;59.59;98994.59;4979533;28;20038;-77
2021/11/26 06:56:54;;;;;;;13.90;8.05;;;;;;;3.09;60.01;99012.66;4971651;28;20089;-76
2021/11/26 06:59:20;;;;;;;12.05;7.35;;;;;;;3.13;59.94;99020.41;4958796;28;20058;-79
2021/11/26 07:01:46;;;;;;;12.07;7.05;;;;;;;3.16;60.19;99047.88;4974072;28;20102;-77
2021/11/26 07:04:14;;;;;;;18.17;9.00;;;;;;;2.86;59.70;98977.34;4963455;28;20051;-77
2021/11/26 07:06:40;;;;;;;14.73;7.93;;;;;;;2.90;59.96;98960.22;4956344;28;20050;-81
2021/11/26 07:09:06;;;;;;;15.38;8.00;;;;;;;3.23;59.84;99030.78;4976334;28;20091;-78
2021/11/26 07:11:32;;;;;;;13.57;7.65;;;;;;;3.21;59.78;99033.34;4973891;28;20035;-76
2021/11/26 07:13:58;;;;;;;12.55;6.95;;;;;;;3.24;59.91;99029.94;4971722;28;20056;-80
2021/11/26 07:16:23;;;;;;;15.85;8.00;;;;;;;3.28;60.37;99018.84;4973518;28;20137;-78
2021/11/26 07:18:49;;;;;;;18.33;7.47;;;;;;;3.32;59.79;99018.00;4939695;28;20611;-80
2021/11/26 07:21:16;;;;;;;13.30;7.45;;;;;;;3.36;60.22;99031.75;4974339;28;21165;-80
2021/11/26 07:23:42;;;;;;;13.32;7.45;;;;;;;3.30;59.98;99027.44;4987531;28;20062;-82
2021/11/26 07:26:09;;;;;;;14.05;7.88;;;;;;;3.29;60.17;99018.84;4955614;28;20043;-79
2021/11/26 07:28:35;;;;;;;13.98;7.40;;;;;;;3.09;59.75;98982.66;4955575;28;20042;-80
2021/11/26 07:31:01;;;;;;;16.90;8.07;;;;;;;3.26;60.23;99013.66;4971302;28;20476;-77
2021/11/26 07:33:27;;;;;;;13.60;7.13;;;;;;;3.32;60.06;99025.72;4971947;28;20046;-83
2021/11/26 07:35:53;;;;;;;18.13;7.35;;;;;;;2.90;59.89;98960.22;4970384;28;20873;-82
2021/11/26 07:38:19;;;;;;;15.00;8.15;;;;;;;3.16;60.71;99004.16;4959855;28;20225;-82
2021/11/26 07:40:45;;;;;;;10.55;6.85;;;;;;;3.33;60.36;99018.88;4969469;28;20047;-81
2021/11/26 07:43:11;;;;;;;14.85;7.88;;;;;;;3.44;60.37;99012.97;4971402;28;20054;-77
2021/11/26 07:45:37;;;;;;;12.43;7.40;;;;;;;3.38;60.12;99002.63;4984711;28;20050;-81
2021/11/26 07:48:03;;;;;;;11.70;7.25;;;;;;;3.44;59.86;99007.81;4978274;28;20101;-79
2021/11/26 07:50:29;;;;;;;13.88;7.72;;;;;;;3.48;60.21;99006.13;4950269;28;20097;-79
2021/11/26 07:52:55;;;;;;;14.25;7.05;;;;;;;3.47;60.05;98996.69;4977208;28;20054;-79
2021/11/26 07:55:22;;;;;;;11.25;6.63;;;;;;;3.46;60.01;98997.53;4985828;28;20041;-79
2021/11/26 07:57:50;;;;;;;11.95;7.28;;;;;;;3.43;60.20;98974.34;5000361;28;20078;-77
2021/11/26 08:00:16;;;;;;;11.02;7.03;;;;;;;3.40;59.69;98967.47;4982560;28;20093;-82
2021/11/26 08:02:43;;;;;;;12.68;7.35;;;;;;;3.41;60.19;98973.50;4983531;28;20042;-78
2021/11/26 08:05:09;;;;;;;12.57;6.82;;;;;;;3.38;60.29;98922.03;4951118;28;20030;-79
2021/11/26 08:07:36;;;;;;;12.75;7.63;;;;;;;3.46;60.31;98930.63;4980990;28;20052;-83
2021/11/26 08:10:08;;;;;;;14.07;7.07;;;;;;;3.51;59.58;98936.69;4928353;28;20042;-79
2021/11/26 08:12:36;;;;;;;13.20;7.88;;;;;;;3.85;59.98;98983.22;4974333;28;20387;-78
2021/11/26 08:15:07;;;;;;;12.73;7.50;;;;;;;3.91;59.42;98966.94;4957037;28;20274;-79
2021/11/26 08:17:36;;;;;;;12.38;7.15;;;;;;;3.56;60.08;98903.25;4958332;28;20034;-79
2021/11/26 08:20:03;;;;;;;13.65;7.88;;;;;;;3.89;59.78;98956.59;4967339;28;20948;-81
2021/11/26 08:22:30;;;;;;;13.07;6.88;;;;;;;3.92;59.87;98959.19;4972280;28;20047;-78
2021/11/26 08:24:56;;;;;;;12.90;7.35;;;;;;;3.67;59.77;98908.47;4958722;28;20046;-77
2021/11/26 08:27:21;;;;;;;13.45;7.55;;;;;;;3.66;59.45;98901.59;4956431;28;20408;-80
2021/11/26 08:29:50;;;;;;;16.05;7.20;;;;;;;3.55;59.84;98889.53;4956679;28;20097;-79
2021/11/26 08:32:36;;;;;;;12.90;6.85;;;;;;;3.81;59.63;98932.56;4942322;28;20049;-78
2021/11/26 08:35:05;;;;;;;11.82;6.82;;;;;;;3.80;59.11;98930.84;4952203;28;20049;-79
2021/11/26 08:37:31;;;;;;;11.65;7.32;;;;;;;3.99;59.14;98948.94;4943056;28;20445;-76
2021/11/26 08:39:58;;;;;;;12.70;6.97;;;;;;;3.84;59.53;98927.44;4960616;28;20049;-80
2021/11/26 08:42:23;;;;;;;13.35;6.97;;;;;;;3.97;59.34;98936.06;4976261;28;20061;-80
2021/11/26 08:44:50;;;;;;;11.65;7.05;;;;;;;3.63;58.82;98888.75;4967410;28;20062;-80
2021/11/26 08:47:16;;;;;;;11.45;6.05;;;;;;;3.64;59.09;98895.59;4977832;28;20038;-78
2021/11/26 08:49:42;;;;;;;11.75;6.50;;;;;;;3.96;59.35;98939.50;4968493;28;20106;-79
2021/11/26 08:52:10;;;;;;;18.88;6.80;;;;;;;3.90;58.79;98954.91;4960759;28;20486;-76
2021/11/26 08:54:36;;;;;;;10.38;6.03;;;;;;;3.83;59.09;98928.28;4976706;28;20078;-78
2021/11/26 08:57:02;;;;;;;11.25;6.50;;;;;;;3.85;59.13;98929.16;4981014;28;20050;-77
2021/11/26 08:59:29;;;;;;;11.85;6.35;;;;;;;3.80;59.67;98915.41;4977417;28;20039;-79
2021/11/26 09:01:55;;;;;;;13.63;7.00;;;;;;;3.61;59.21;98894.72;4962382;28;20050;-81
2021/11/26 09:04:22;;;;;;;12.43;6.80;;;;;;;3.75;59.49;98902.50;4974263;28;20569;-80
2021/11/26 09:06:49;;;;;;;15.80;7.10;;;;;;;3.68;59.25;98879.31;4958416;28;20045;-78
2021/11/26 09:09:15;;;;;;;13.25;6.75;;;;;;;3.83;59.24;98909.38;4989909;28;20096;-77
2021/11/26 09:11:41;;;;;;;11.93;6.68;;;;;;;3.88;59.51;98921.41;4972365;28;20138;-78
2021/11/26 09:14:08;;;;;;;11.88;6.55;;;;;;;3.67;58.91;98888.75;4956587;28;20145;-80
2021/11/26 09:16:34;;;;;;;11.82;6.82;;;;;;;3.87;58.90;98922.28;4992491;28;20035;-80
2021/11/26 09:19:01;;;;;;;13.05;6.88;;;;;;;3.79;59.46;98915.38;4975206;28;20084;-80
2021/11/26 09:21:27;;;;;;;12.18;6.65;;;;;;;3.83;59.32;98912.84;4957109;28;20070;-81
2021/11/26 09:23:53;;;;;;;13.18;7.28;;;;;;;3.73;59.41;98890.47;4955460;28;20471;-78
2021/11/26 09:26:19;;;;;;;12.73;6.82;;;;;;;3.91;59.09;98925.75;4942926;28;20039;-79
2021/11/26 09:28:46;;;;;;;11.63;7.07;;;;;;;3.86;59.11;98901.69;4953566;28;20058;-77
2021/11/26 09:31:12;;;;;;;11.65;6.80;;;;;;;3.96;58.77;98925.75;4939839;28;20427;-79
2021/11/26 09:33:38;;;;;;;11.55;6.30;;;;;;;3.76;59.32;98904.22;4956731;28;20047;-80
2021/11/26 09:36:07;;;;;;;11.63;6.53;;;;;;;3.70;59.38;98888.75;4942135;28;20085;-79
2021/11/26 09:38:34;;;;;;;16.95;6.65;;;;;;;3.80;59.41;98924.81;4979650;28;20133;-76
2021/11/26 09:41:03;;;;;;;12.77;7.13;;;;;;;3.67;60.03;98903.31;4959241;28;20070;-79
2021/11/26 09:43:30;;;;;;;13.82;6.90;;;;;;;3.75;60.05;98912.78;4948905;28;20047;-79
2021/11/26 09:45:56;;;;;;;10.27;6.45;;;;;;;3.85;59.78;98943.72;4975496;28;20047;-79
2021/11/26 09:48:25;;;;;;;12.55;6.43;;;;;;;3.14;59.71;98806.19;5010765;28;20069;-82
2021/11/26 09:50:51;;;;;;;12.40;6.47;;;;;;;3.89;59.88;98935.16;4960849;28;20057;-81
2021/11/26 09:53:22;;;;;;;11.88;6.15;;;;;;;3.88;59.93;98930.88;4960165;28;20034;-78
2021/11/26 09:55:51;;;;;;;11.20;6.63;;;;;;;3.88;59.84;98931.72;4993944;28;20034;-80
2021/11/26 09:58:19;;;;;;;13.43;7.05;;;;;;;3.71;59.85;98902.47;4991816;28;20112;-80
2021/11/26 10:00:46;;;;;;;11.68;6.85;;;;;;;3.87;60.04;98924.84;5007354;28;20084;-82
2021/11/26 10:03:12;;;;;;;11.38;6.60;;;;;;;3.87;59.96;98927.41;4970887;28;20054;-80
2021/11/26 10:05:38;;;;;;;12.10;6.43;;;;;;;3.68;60.08;98889.59;4961187;28;20197;-79
2021/11/26 10:08:05;;;;;;;12.85;6.90;;;;;;;3.65;60.50;98882.72;5009633;28;20076;-79
2021/11/26 10:10:36;;;;;;;13.18;7.45;;;;;;;3.70;59.92;98900.75;4991686;28;20038;-77
2021/11/26 10:13:08;;;;;;;12.60;6.60;;;;;;;3.88;60.35;98923.16;4975131;28;20049;-78
2021/11/26 10:15:38;;;;;;;17.88;7.40;;;;;;;3.88;60.00;98924.00;4990445;28;20042;-81
2021/11/26 10:18:13;;;;;;;14.25;7.22;;;;;;;3.71;60.30;98894.75;4995704;28;20050;-81
2021/11/26 10:21:04;;;;;;;12.50;6.40;;;;;;;3.72;60.39;98899.94;4956641;28;20060;-79
2021/11/26 10:23:35;;;;;;;13.00;7.03;;;;;;;3.90;60.57;98936.88;4958887;28;20053;-79
2021/11/26 10:26:24;;;;;;;12.45;6.43;;;;;;;3.88;60.19;98926.56;4970332;28;20165;-80
2021/11/26 10:29:01;;;;;;;10.52;6.05;;;;;;;3.67;60.40;98903.31;4954358;28;20060;-79
2021/11/26 10:31:29;;;;;;;10.82;6.53;;;;;;;3.66;60.77;98909.31;4990666;28;20447;-81
2021/11/26 10:34:01;;;;;;;15.68;7.55;;;;;;;3.70;60.55;98913.63;4977501;28;20039;-77
2021/11/26 10:36:51;;;;;;;11.45;6.20;;;;;;;3.81;60.62;98917.13;4977698;28;20038;-78
2021/11/26 10:39:22;;;;;;;12.27;6.65;;;;;;;3.81;60.77;98940.28;4978175;28;20050;-81
2021/11/26 10:41:54;;;;;;;14.57;7.20;;;;;;;3.81;60.78;98932.56;4957686;28;20136;-82
2021/11/26 10:44:47;;;;;;;13.02;6.45;;;;;;;3.81;61.15;98934.25;5014536;28;20038;-79
2021/11/26 10:47:36;;;;;;;12.33;7.03;;;;;;;3.31;61.33;98844.84;4973683;28;20065;-80
2021/11/26 10:56:42;;;;;;;12.35;6.78;;;;;;;3.59;60.91;98904.16;4989305;28;20049;-79
2021/11/26 11:01:04;;;;;;;11.57;6.57;;;;;;;3.82;60.65;98933.41;4976221;28;19921;-81
2021/11/26 11:03:30;;;;;;;13.30;6.90;;;;;;;3.82;61.47;98921.41;4993282;28;20046;-77
2021/11/26 11:05:57;;;;;;;13.52;6.40;;;;;;;3.89;61.63;98922.28;5013141;28;20049;-78
2021/11/26 11:08:24;;;;;;;11.57;6.20;;;;;;;3.91;61.41;98916.28;4983149;28;20496;-79
2021/11/26 11:10:51;;;;;;;11.02;6.20;;;;;;;4.03;61.30;98924.94;4985517;28;20050;-77
2021/11/26 11:13:23;;;;;;;13.95;6.93;;;;;;;3.95;61.43;98908.59;4988000;28;20038;-79
2021/11/26 11:15:50;;;;;;;11.00;6.22;;;;;;;3.83;60.83;98904.25;4955179;28;20102;-79
2021/11/26 11:18:18;;;;;;;13.82;7.78;;;;;;;3.96;61.51;98933.47;5020492;28;20049;-78
2021/11/26 11:20:45;;;;;;;12.25;7.00;;;;;;;3.82;61.20;98894.81;4978346;28;20041;-77
2021/11/26 11:23:14;;;;;;;12.73;5.85;;;;;;;3.96;60.57;98905.16;5000246;28;20038;-79
2021/11/26 11:25:41;;;;;;;11.73;6.88;;;;;;;4.00;60.98;98922.34;5000505;28;20075;-78
2021/11/26 11:28:10;;;;;;;10.13;6.03;;;;;;;4.04;60.48;98936.94;5006549;28;20069;-77
2021/11/26 11:30:39;;;;;;;10.27;6.15;;;;;;;4.07;60.38;98942.97;5004604;28;20045;-76
2021/11/26 11:33:08;;;;;;;10.95;6.45;;;;;;;3.82;60.91;98903.41;5005209;28;20038;-76
2021/11/26 11:35:37;;;;;;;12.25;6.85;;;;;;;4.06;61.17;98927.53;4987350;28;20035;-79
2021/11/26 11:38:04;;;;;;;13.07;6.90;;;;;;;4.00;60.62;98917.19;5003298;28;20094;-77
2021/11/26 11:40:36;;;;;;;14.82;6.65;;;;;;;3.89;60.70;98901.69;4991051;28;20050;-77
2021/11/26 11:43:20;;;;;;;13.02;6.53;;;;;;;4.04;60.71;98926.66;5005917;28;20085;-79
2021/11/26 11:45:59;;;;;;;12.60;6.70;;;;;;;4.06;60.33;98951.53;4968274;28;20081;-78
2021/11/26 11:48:31;;;;;;;12.30;6.38;;;;;;;4.00;59.88;98945.50;4998954;28;20102;-82